sensor_id;sensor_type;location;lat;lon;timestamp;pressure;altitude;pressure_sealevel;temperature;humidity
44131;BME280;29792;48.726;9.248;2023-04-15T00:01:47;95928.97;;;6.95;72.85
44131;BME280;29792;48.726;9.248;2023-04-15T00:04:13;95934.19;;;6.93;73.14
44131;BME280;29792;48.726;9.248;2023-04-15T00:06:38;95933.78;;;6.88;73.05
44131;BME280;29792;48.726;9.248;2023-04-15T00:09:06;95931.72;;;6.82;73.67
44131;BME280;29792;48.726;9.248;2023-04-15T00:11:31;95928.75;;;6.77;73.35
44131;BME280;29792;48.726;9.248;2023-04-15T00:13:56;95923.25;;;6.72;73.78
44131;BME280;29792;48.726;9.248;2023-04-15T00:16:22;95926.84;;;6.69;74.06
44131;BME280;29792;48.726;9.248;2023-04-15T00:18:48;95936.22;;;6.69;75.09
44131;BME280;29792;48.726;9.248;2023-04-15T00:21:14;95931.50;;;6.64;74.96
44131;BME280;29792;48.726;9.248;2023-04-15T00:23:39;95927.59;;;6.60;75.83
44131;BME280;29792;48.726;9.248;2023-04-15T00:26:04;95933.72;;;6.58;75.78
44131;BME280;29792;48.726;9.248;2023-04-15T00:28:30;95930.38;;;6.57;76.00
44131;BME280;29792;48.726;9.248;2023-04-15T00:30:55;95923.00;;;6.54;76.10
44131;BME280;29792;48.726;9.248;2023-04-15T00:33:20;95919.09;;;6.50;76.74
44131;BME280;29792;48.726;9.248;2023-04-15T00:35:45;95918.53;;;6.46;76.15
44131;BME280;29792;48.726;9.248;2023-04-15T00:38:11;95911.28;;;6.42;76.06
44131;BME280;29792;48.726;9.248;2023-04-15T00:40:37;95920.63;;;6.41;76.08
44131;BME280;29792;48.726;9.248;2023-04-15T00:43:02;95910.72;;;6.38;77.41
44131;BME280;29792;48.726;9.248;2023-04-15T00:45:28;95912.47;;;6.38;77.25
44131;BME280;29792;48.726;9.248;2023-04-15T00:47:54;95912.47;;;6.38;77.71
44131;BME280;29792;48.726;9.248;2023-04-15T00:50:20;95920.22;;;6.36;77.58
44131;BME280;29792;48.726;9.248;2023-04-15T00:52:45;95924.59;;;6.34;78.09
44131;BME280;29792;48.726;9.248;2023-04-15T00:55:11;95920.03;;;6.28;77.73
44131;BME280;29792;48.726;9.248;2023-04-15T00:57:37;95917.06;;;6.23;77.27
44131;BME280;29792;48.726;9.248;2023-04-15T01:00:03;95919.72;;;6.22;77.57
44131;BME280;29792;48.726;9.248;2023-04-15T01:02:30;95923.19;;;6.21;77.88
44131;BME280;29792;48.726;9.248;2023-04-15T01:04:56;95927.69;;;6.17;78.38
44131;BME280;29792;48.726;9.248;2023-04-15T01:07:21;95932.59;;;6.09;79.41
44131;BME280;29792;48.726;9.248;2023-04-15T01:09:47;95928.91;;;6.02;79.35
44131;BME280;29792;48.726;9.248;2023-04-15T01:12:13;95922.81;;;5.93;78.99
44131;BME280;29792;48.726;9.248;2023-04-15T01:14:40;95922.28;;;5.90;79.32
44131;BME280;29792;48.726;9.248;2023-04-15T01:17:05;95923.09;;;5.90;79.76
44131;BME280;29792;48.726;9.248;2023-04-15T01:19:31;95917.31;;;5.88;79.96
44131;BME280;29792;48.726;9.248;2023-04-15T01:21:56;95923.19;;;5.89;79.87
44131;BME280;29792;48.726;9.248;2023-04-15T01:24:22;95924.31;;;5.85;79.87
44131;BME280;29792;48.726;9.248;2023-04-15T01:26:48;95922.16;;;5.80;80.58
44131;BME280;29792;48.726;9.248;2023-04-15T01:29:14;95920.91;;;5.74;80.13
44131;BME280;29792;48.726;9.248;2023-04-15T01:31:39;95927.25;;;5.69;81.16
44131;BME280;29792;48.726;9.248;2023-04-15T01:34:05;95923.59;;;5.62;80.38
44131;BME280;29792;48.726;9.248;2023-04-15T01:36:31;95915.41;;;5.58;81.78
44131;BME280;29792;48.726;9.248;2023-04-15T01:38:57;95924.31;;;5.53;82.31
44131;BME280;29792;48.726;9.248;2023-04-15T01:41:25;95923.75;;;5.49;82.55
44131;BME280;29792;48.726;9.248;2023-04-15T01:43:51;95922.47;;;5.44;82.37
44131;BME280;29792;48.726;9.248;2023-04-15T01:46:16;95923.66;;;5.40;82.10
44131;BME280;29792;48.726;9.248;2023-04-15T01:48:42;95921.47;;;5.35;82.17
44131;BME280;29792;48.726;9.248;2023-04-15T01:51:07;95922.41;;;5.34;82.59
44131;BME280;29792;48.726;9.248;2023-04-15T01:53:32;95918.47;;;5.30;83.29
44131;BME280;29792;48.726;9.248;2023-04-15T01:55:58;95919.63;;;5.26;83.28
44131;BME280;29792;48.726;9.248;2023-04-15T01:58:23;95921.59;;;5.22;83.08
44131;BME280;29792;48.726;9.248;2023-04-15T02:00:49;95921.03;;;5.19;83.81
44131;BME280;29792;48.726;9.248;2023-04-15T02:03:14;95916.19;;;5.16;83.03
44131;BME280;29792;48.726;9.248;2023-04-15T02:05:39;95916.28;;;5.14;83.85
44131;BME280;29792;48.726;9.248;2023-04-15T02:08:04;95914.78;;;5.12;84.54
44131;BME280;29792;48.726;9.248;2023-04-15T02:10:30;95911.56;;;5.10;84.76
44131;BME280;29792;48.726;9.248;2023-04-15T02:12:55;95912.59;;;5.07;85.07
44131;BME280;29792;48.726;9.248;2023-04-15T02:15:21;95914.56;;;5.04;85.78
44131;BME280;29792;48.726;9.248;2023-04-15T02:17:46;95908.91;;;5.00;85.44
44131;BME280;29792;48.726;9.248;2023-04-15T02:20:18;95908.34;;;4.96;85.47
44131;BME280;29792;48.726;9.248;2023-04-15T02:22:44;95904.53;;;4.91;87.03
44131;BME280;29792;48.726;9.248;2023-04-15T02:25:09;95907.66;;;4.83;87.60
44131;BME280;29792;48.726;9.248;2023-04-15T02:27:35;95909.16;;;4.75;88.00
44131;BME280;29792;48.726;9.248;2023-04-15T02:30:01;95909.13;;;4.64;89.18
44131;BME280;29792;48.726;9.248;2023-04-15T02:32:26;95908.22;;;4.53;90.13
44131;BME280;29792;48.726;9.248;2023-04-15T02:34:52;95909.69;;;4.45;91.73
44131;BME280;29792;48.726;9.248;2023-04-15T02:37:18;95903.91;;;4.43;93.00
44131;BME280;29792;48.726;9.248;2023-04-15T02:39:44;95901.38;;;4.43;93.06
44131;BME280;29792;48.726;9.248;2023-04-15T02:42:09;95906.34;;;4.44;93.42
44131;BME280;29792;48.726;9.248;2023-04-15T02:44:35;95903.56;;;4.47;92.68
44131;BME280;29792;48.726;9.248;2023-04-15T02:47:00;95898.50;;;4.47;92.79
44131;BME280;29792;48.726;9.248;2023-04-15T02:49:26;95903.34;;;4.50;92.40
44131;BME280;29792;48.726;9.248;2023-04-15T02:51:53;95896.56;;;4.51;93.71
44131;BME280;29792;48.726;9.248;2023-04-15T02:54:20;95903.47;;;4.49;94.06
44131;BME280;29792;48.726;9.248;2023-04-15T02:56:47;95898.50;;;4.47;93.64
44131;BME280;29792;48.726;9.248;2023-04-15T02:59:12;95898.63;;;4.46;93.27
44131;BME280;29792;48.726;9.248;2023-04-15T03:01:38;95901.94;;;4.46;93.21
44131;BME280;29792;48.726;9.248;2023-04-15T03:04:03;95903.72;;;4.46;92.83
44131;BME280;29792;48.726;9.248;2023-04-15T03:06:28;95905.28;;;4.47;93.25
44131;BME280;29792;48.726;9.248;2023-04-15T03:08:53;95896.09;;;4.46;92.72
44131;BME280;29792;48.726;9.248;2023-04-15T03:11:19;95894.34;;;4.46;93.48
44131;BME280;29792;48.726;9.248;2023-04-15T03:13:45;95901.94;;;4.46;92.68
44131;BME280;29792;48.726;9.248;2023-04-15T03:16:11;95896.09;;;4.46;92.95
44131;BME280;29792;48.726;9.248;2023-04-15T03:18:36;95899.66;;;4.43;92.73
44131;BME280;29792;48.726;9.248;2023-04-15T03:21:02;95904.72;;;4.43;92.46
44131;BME280;29792;48.726;9.248;2023-04-15T03:23:27;95900.38;;;4.45;92.56
44131;BME280;29792;48.726;9.248;2023-04-15T03:25:52;95899.66;;;4.43;93.06
44131;BME280;29792;48.726;9.248;2023-04-15T03:28:21;95897.13;;;4.43;92.90
44131;BME280;29792;48.726;9.248;2023-04-15T03:30:46;95900.47;;;4.44;92.87
44131;BME280;29792;48.726;9.248;2023-04-15T03:33:11;95898.03;;;4.42;92.74
44131;BME280;29792;48.726;9.248;2023-04-15T03:35:37;95895.84;;;4.38;92.85
44131;BME280;29792;48.726;9.248;2023-04-15T03:38:02;95896.06;;;4.35;92.81
44131;BME280;29792;48.726;9.248;2023-04-15T03:40:27;95902.50;;;4.28;92.08
44131;BME280;29792;48.726;9.248;2023-04-15T03:42:52;95909.06;;;4.19;92.53
44131;BME280;29792;48.726;9.248;2023-04-15T03:45:18;95902.22;;;4.08;92.41
44131;BME280;29792;48.726;9.248;2023-04-15T03:47:43;95895.38;;;3.98;93.45
44131;BME280;29792;48.726;9.248;2023-04-15T03:50:08;95896.06;;;3.89;93.67
44131;BME280;29792;48.726;9.248;2023-04-15T03:52:34;95890.50;;;3.83;94.27
44131;BME280;29792;48.726;9.248;2023-04-15T03:54:59;95895.91;;;3.79;94.39
44131;BME280;29792;48.726;9.248;2023-04-15T03:57:25;95898.88;;;3.73;94.64
44131;BME280;29792;48.726;9.248;2023-04-15T03:59:51;95906.59;;;3.71;94.77
44131;BME280;29792;48.726;9.248;2023-04-15T04:02:16;95900.09;;;3.67;95.22
44131;BME280;29792;48.726;9.248;2023-04-15T04:04:41;95902.16;;;3.62;95.60
44131;BME280;29792;48.726;9.248;2023-04-15T04:07:07;95898.00;;;3.61;96.19
44131;BME280;29792;48.726;9.248;2023-04-15T04:09:33;95904.00;;;3.60;96.52
44131;BME280;29792;48.726;9.248;2023-04-15T04:11:58;95905.81;;;3.58;95.99
44131;BME280;29792;48.726;9.248;2023-04-15T04:14:23;95911.91;;;3.56;96.07
44131;BME280;29792;48.726;9.248;2023-04-15T04:16:53;95913.03;;;3.52;96.72
44131;BME280;29792;48.726;9.248;2023-04-15T04:19:19;95908.97;;;3.49;96.73
44131;BME280;29792;48.726;9.248;2023-04-15T04:21:44;95917.53;;;3.48;97.34
44131;BME280;29792;48.726;9.248;2023-04-15T04:24:10;95921.88;;;3.46;97.19
44131;BME280;29792;48.726;9.248;2023-04-15T04:26:35;95920.25;;;3.45;97.23
44131;BME280;29792;48.726;9.248;2023-04-15T04:29:01;95917.72;;;3.45;97.61
44131;BME280;29792;48.726;9.248;2023-04-15T04:31:26;95921.25;;;3.42;97.48
44131;BME280;29792;48.726;9.248;2023-04-15T04:33:52;95923.31;;;3.37;97.32
44131;BME280;29792;48.726;9.248;2023-04-15T04:36:17;95921.22;;;3.31;97.64
44131;BME280;29792;48.726;9.248;2023-04-15T04:38:42;95927.47;;;3.26;97.54
44131;BME280;29792;48.726;9.248;2023-04-15T04:41:07;95926.19;;;3.20;97.54
44131;BME280;29792;48.726;9.248;2023-04-15T04:43:33;95928.25;;;3.15;97.61
44131;BME280;29792;48.726;9.248;2023-04-15T04:45:58;95926.91;;;3.10;98.32
44131;BME280;29792;48.726;9.248;2023-04-15T04:48:23;95920.56;;;3.04;97.84
44131;BME280;29792;48.726;9.248;2023-04-15T04:50:48;95925.00;;;3.00;98.66
44131;BME280;29792;48.726;9.248;2023-04-15T04:53:14;95924.50;;;2.95;98.26
44131;BME280;29792;48.726;9.248;2023-04-15T04:55:39;95928.06;;;2.93;98.53
44131;BME280;29792;48.726;9.248;2023-04-15T04:58:04;95932.53;;;2.89;98.55
44131;BME280;29792;48.726;9.248;2023-04-15T05:00:29;95930.41;;;2.83;98.57
44131;BME280;29792;48.726;9.248;2023-04-15T05:02:55;95925.66;;;2.79;98.73
44131;BME280;29792;48.726;9.248;2023-04-15T05:05:20;95937.56;;;2.77;99.04
44131;BME280;29792;48.726;9.248;2023-04-15T05:07:46;95936.88;;;2.75;99.48
44131;BME280;29792;48.726;9.248;2023-04-15T05:10:13;95934.47;;;2.73;99.76
44131;BME280;29792;48.726;9.248;2023-04-15T05:12:39;95942.94;;;2.72;99.79
44131;BME280;29792;48.726;9.248;2023-04-15T05:15:05;95939.50;;;2.73;99.98
44131;BME280;29792;48.726;9.248;2023-04-15T05:17:30;95939.41;;;2.75;100.00
44131;BME280;29792;48.726;9.248;2023-04-15T05:19:57;95941.13;;;2.74;99.88
44131;BME280;29792;48.726;9.248;2023-04-15T05:22:22;95942.03;;;2.73;100.00
44131;BME280;29792;48.726;9.248;2023-04-15T05:24:47;95941.31;;;2.71;100.00
44131;BME280;29792;48.726;9.248;2023-04-15T05:27:13;95938.06;;;2.69;100.00
44131;BME280;29792;48.726;9.248;2023-04-15T05:29:38;95936.28;;;2.71;100.00
44131;BME280;29792;48.726;9.248;2023-04-15T05:32:03;95935.38;;;2.72;100.00
44131;BME280;29792;48.726;9.248;2023-04-15T05:34:29;95940.22;;;2.75;100.00
44131;BME280;29792;48.726;9.248;2023-04-15T05:36:55;95942.63;;;2.77;100.00
44131;BME280;29792;48.726;9.248;2023-04-15T05:39:20;95940.09;;;2.77;100.00
44131;BME280;29792;48.726;9.248;2023-04-15T05:41:46;95933.31;;;2.77;100.00
44131;BME280;29792;48.726;9.248;2023-04-15T05:44:11;95941.63;;;2.79;100.00
44131;BME280;29792;48.726;9.248;2023-04-15T05:46:36;95939.81;;;2.81;100.00
44131;BME280;29792;48.726;9.248;2023-04-15T05:49:01;95948.91;;;2.84;100.00
44131;BME280;29792;48.726;9.248;2023-04-15T05:51:27;95952.66;;;2.91;100.00
44131;BME280;29792;48.726;9.248;2023-04-15T05:53:52;95952.13;;;2.98;100.00
44131;BME280;29792;48.726;9.248;2023-04-15T05:56:17;95944.03;;;3.06;100.00
44131;BME280;29792;48.726;9.248;2023-04-15T05:58:44;95951.69;;;3.17;100.00
44131;BME280;29792;48.726;9.248;2023-04-15T06:01:09;95942.66;;;3.26;100.00
44131;BME280;29792;48.726;9.248;2023-04-15T06:03:35;95947.19;;;3.33;100.00
44131;BME280;29792;48.726;9.248;2023-04-15T06:06:00;95944.75;;;3.44;100.00
44131;BME280;29792;48.726;9.248;2023-04-15T06:08:26;95954.16;;;3.55;100.00
44131;BME280;29792;48.726;9.248;2023-04-15T06:10:51;95950.16;;;3.64;100.00
44131;BME280;29792;48.726;9.248;2023-04-15T06:13:17;95945.75;;;3.78;100.00
44131;BME280;29792;48.726;9.248;2023-04-15T06:15:42;95948.91;;;3.93;100.00
44131;BME280;29792;48.726;9.248;2023-04-15T06:18:07;95943.69;;;4.07;100.00
44131;BME280;29792;48.726;9.248;2023-04-15T06:20:33;95944.91;;;4.26;100.00
44131;BME280;29792;48.726;9.248;2023-04-15T06:22:58;95949.34;;;4.46;100.00
44131;BME280;29792;48.726;9.248;2023-04-15T06:25:23;95953.63;;;4.68;100.00
44131;BME280;29792;48.726;9.248;2023-04-15T06:27:48;95950.31;;;4.89;100.00
44131;BME280;29792;48.726;9.248;2023-04-15T06:30:14;95948.72;;;5.11;100.00
44131;BME280;29792;48.726;9.248;2023-04-15T06:32:39;95946.38;;;5.30;100.00
44131;BME280;29792;48.726;9.248;2023-04-15T06:35:05;95953.09;;;5.42;100.00
44131;BME280;29792;48.726;9.248;2023-04-15T06:37:30;95959.84;;;5.53;100.00
44131;BME280;29792;48.726;9.248;2023-04-15T06:39:56;95961.47;;;5.65;100.00
44131;BME280;29792;48.726;9.248;2023-04-15T06:42:22;95969.84;;;5.76;99.29
44131;BME280;29792;48.726;9.248;2023-04-15T06:44:47;95969.03;;;5.87;99.21
44131;BME280;29792;48.726;9.248;2023-04-15T06:47:12;95963.16;;;5.98;98.27
44131;BME280;29792;48.726;9.248;2023-04-15T06:49:39;95964.81;;;6.08;98.06
44131;BME280;29792;48.726;9.248;2023-04-15T06:52:04;95968.25;;;6.19;97.38
44131;BME280;29792;48.726;9.248;2023-04-15T06:54:29;95968.56;;;6.25;97.34
44131;BME280;29792;48.726;9.248;2023-04-15T06:56:55;95968.66;;;6.35;96.64
44131;BME280;29792;48.726;9.248;2023-04-15T06:59:20;95971.38;;;6.43;96.96
44131;BME280;29792;48.726;9.248;2023-04-15T07:01:46;95977.13;;;6.56;97.00
44131;BME280;29792;48.726;9.248;2023-04-15T07:04:11;95968.66;;;6.76;95.66
44131;BME280;29792;48.726;9.248;2023-04-15T07:06:36;95972.25;;;6.95;96.13
44131;BME280;29792;48.726;9.248;2023-04-15T07:09:02;95970.84;;;7.11;95.75
44131;BME280;29792;48.726;9.248;2023-04-15T07:11:29;95968.09;;;7.24;93.94
44131;BME280;29792;48.726;9.248;2023-04-15T07:13:54;95962.34;;;7.32;92.80
44131;BME280;29792;48.726;9.248;2023-04-15T07:16:19;95959.44;;;7.36;92.52
44131;BME280;29792;48.726;9.248;2023-04-15T07:18:45;95962.66;;;7.48;92.06
44131;BME280;29792;48.726;9.248;2023-04-15T07:21:10;95958.97;;;7.61;92.35
44131;BME280;29792;48.726;9.248;2023-04-15T07:23:36;95959.78;;;7.72;91.18
44131;BME280;29792;48.726;9.248;2023-04-15T07:26:02;95954.19;;;7.78;91.37
44131;BME280;29792;48.726;9.248;2023-04-15T07:28:27;95953.34;;;7.87;91.35
44131;BME280;29792;48.726;9.248;2023-04-15T07:30:53;95950.69;;;7.98;90.83
44131;BME280;29792;48.726;9.248;2023-04-15T07:33:19;95960.22;;;8.05;89.83
44131;BME280;29792;48.726;9.248;2023-04-15T07:35:44;95958.50;;;8.16;89.10
44131;BME280;29792;48.726;9.248;2023-04-15T07:38:10;95957.16;;;8.21;88.95
44131;BME280;29792;48.726;9.248;2023-04-15T07:40:37;95954.47;;;8.23;88.31
44131;BME280;29792;48.726;9.248;2023-04-15T07:43:03;95956.22;;;8.22;87.57
44131;BME280;29792;48.726;9.248;2023-04-15T07:45:29;95956.25;;;8.32;86.82
44131;BME280;29792;48.726;9.248;2023-04-15T07:47:55;95960.41;;;8.43;86.60
44131;BME280;29792;48.726;9.248;2023-04-15T07:50:20;95954.44;;;8.71;86.21
44131;BME280;29792;48.726;9.248;2023-04-15T07:52:47;95957.56;;;9.11;85.70
44131;BME280;29792;48.726;9.248;2023-04-15T07:55:12;95957.88;;;9.36;84.20
44131;BME280;29792;48.726;9.248;2023-04-15T07:57:38;95962.38;;;9.51;81.47
44131;BME280;29792;48.726;9.248;2023-04-15T08:00:04;95959.28;;;9.75;81.37
44131;BME280;29792;48.726;9.248;2023-04-15T08:02:31;95957.94;;;10.16;80.44
44131;BME280;29792;48.726;9.248;2023-04-15T08:04:57;95958.44;;;10.55;78.24
44131;BME280;29792;48.726;9.248;2023-04-15T08:07:23;95956.00;;;10.71;77.41
44131;BME280;29792;48.726;9.248;2023-04-15T08:09:49;95948.03;;;10.75;74.82
44131;BME280;29792;48.726;9.248;2023-04-15T08:12:14;95948.88;;;10.83;74.68
44131;BME280;29792;48.726;9.248;2023-04-15T08:14:40;95952.78;;;10.95;74.37
44131;BME280;29792;48.726;9.248;2023-04-15T08:17:05;95953.00;;;11.02;74.21
44131;BME280;29792;48.726;9.248;2023-04-15T08:19:31;95954.97;;;11.08;73.96
44131;BME280;29792;48.726;9.248;2023-04-15T08:21:56;95957.06;;;11.13;74.23
44131;BME280;29792;48.726;9.248;2023-04-15T08:24:22;95955.81;;;11.17;73.93
44131;BME280;29792;48.726;9.248;2023-04-15T08:26:48;95955.22;;;11.31;73.45
44131;BME280;29792;48.726;9.248;2023-04-15T08:29:13;95950.78;;;11.75;74.15
44131;BME280;29792;48.726;9.248;2023-04-15T08:31:38;95952.47;;;12.33;72.38
44131;BME280;29792;48.726;9.248;2023-04-15T08:34:04;95952.81;;;12.70;70.89
44131;BME280;29792;48.726;9.248;2023-04-15T08:36:29;95957.25;;;13.17;70.30
44131;BME280;29792;48.726;9.248;2023-04-15T08:38:56;95956.47;;;13.55;68.32
44131;BME280;29792;48.726;9.248;2023-04-15T08:41:23;95957.34;;;13.79;66.91
44131;BME280;29792;48.726;9.248;2023-04-15T08:43:56;95955.31;;;14.20;66.85
44131;BME280;29792;48.726;9.248;2023-04-15T08:46:22;95954.13;;;14.76;66.71
44131;BME280;29792;48.726;9.248;2023-04-15T08:48:48;95956.13;;;15.33;64.76
44131;BME280;29792;48.726;9.248;2023-04-15T08:51:16;95947.34;;;15.71;62.23
44131;BME280;29792;48.726;9.248;2023-04-15T08:53:43;95951.38;;;15.95;61.88
44131;BME280;29792;48.726;9.248;2023-04-15T08:56:11;95952.28;;;16.23;61.91
44131;BME280;29792;48.726;9.248;2023-04-15T08:58:38;95945.22;;;16.53;60.82
44131;BME280;29792;48.726;9.248;2023-04-15T09:01:03;95946.94;;;16.67;58.23
44131;BME280;29792;48.726;9.248;2023-04-15T09:03:29;95946.41;;;16.78;56.64
44131;BME280;29792;48.726;9.248;2023-04-15T09:05:56;95950.91;;;16.91;57.34
44131;BME280;29792;48.726;9.248;2023-04-15T09:08:21;95945.66;;;17.12;56.52
44131;BME280;29792;48.726;9.248;2023-04-15T09:10:46;95947.09;;;17.49;55.31
44131;BME280;29792;48.726;9.248;2023-04-15T09:13:12;95942.03;;;17.76;53.46
44131;BME280;29792;48.726;9.248;2023-04-15T09:15:37;95947.91;;;17.98;50.49
44131;BME280;29792;48.726;9.248;2023-04-15T09:18:03;95951.91;;;18.07;50.10
44131;BME280;29792;48.726;9.248;2023-04-15T09:20:28;95956.31;;;18.19;49.37
44131;BME280;29792;48.726;9.248;2023-04-15T09:22:54;95958.13;;;18.25;47.34
44131;BME280;29792;48.726;9.248;2023-04-15T09:27:59;95965.69;;;18.20;45.28
44131;BME280;29792;48.726;9.248;2023-04-15T09:30:26;95961.28;;;18.08;45.60
44131;BME280;29792;48.726;9.248;2023-04-15T09:32:53;95968.47;;;18.06;45.57
44131;BME280;29792;48.726;9.248;2023-04-15T09:35:20;95968.44;;;17.99;44.70
44131;BME280;29792;48.726;9.248;2023-04-15T09:37:46;95968.56;;;17.84;43.85
44131;BME280;29792;48.726;9.248;2023-04-15T09:40:12;95970.16;;;17.79;44.65
44131;BME280;29792;48.726;9.248;2023-04-15T09:42:58;95973.56;;;17.86;45.12
44131;BME280;29792;48.726;9.248;2023-04-15T09:45:23;95971.00;;;17.92;45.22
44131;BME280;29792;48.726;9.248;2023-04-15T09:47:48;95967.22;;;17.95;44.90
44131;BME280;29792;48.726;9.248;2023-04-15T09:50:18;95973.56;;;17.92;44.81
44131;BME280;29792;48.726;9.248;2023-04-15T09:52:43;95971.59;;;17.88;44.04
44131;BME280;29792;48.726;9.248;2023-04-15T09:55:09;95974.34;;;17.86;44.49
44131;BME280;29792;48.726;9.248;2023-04-15T09:57:36;95974.94;;;17.82;45.01
44131;BME280;29792;48.726;9.248;2023-04-15T10:00:06;95974.72;;;17.77;44.67
44131;BME280;29792;48.726;9.248;2023-04-15T10:02:33;95971.69;;;17.67;44.31
44131;BME280;29792;48.726;9.248;2023-04-15T10:04:58;95975.78;;;17.54;44.42
44131;BME280;29792;48.726;9.248;2023-04-15T10:07:24;95975.31;;;17.44;45.26
44131;BME280;29792;48.726;9.248;2023-04-15T10:09:50;95974.88;;;17.34;44.57
44131;BME280;29792;48.726;9.248;2023-04-15T10:12:16;95971.25;;;17.29;44.52
44131;BME280;29792;48.726;9.248;2023-04-15T10:14:42;95979.97;;;17.21;44.37
44131;BME280;29792;48.726;9.248;2023-04-15T10:17:10;95978.59;;;17.25;44.91
44131;BME280;29792;48.726;9.248;2023-04-15T10:19:37;95975.22;;;17.25;44.35
44131;BME280;29792;48.726;9.248;2023-04-15T10:22:03;95977.78;;;17.18;44.28
44131;BME280;29792;48.726;9.248;2023-04-15T10:24:32;95983.50;;;17.13;44.01
44131;BME280;29792;48.726;9.248;2023-04-15T10:26:59;95978.66;;;17.04;43.75
44131;BME280;29792;48.726;9.248;2023-04-15T10:29:24;95988.06;;;17.11;44.31
44131;BME280;29792;48.726;9.248;2023-04-15T10:31:53;95986.72;;;17.15;42.91
44131;BME280;29792;48.726;9.248;2023-04-15T10:34:19;96000.00;;;17.40;43.50
44131;BME280;29792;48.726;9.248;2023-04-15T10:36:45;96003.44;;;17.75;43.04
44131;BME280;29792;48.726;9.248;2023-04-15T10:39:38;96001.09;;;18.54;43.38
44131;BME280;29792;48.726;9.248;2023-04-15T10:42:13;96003.72;;;19.00;41.92
44131;BME280;29792;48.726;9.248;2023-04-15T10:44:42;96008.31;;;19.31;39.96
44131;BME280;29792;48.726;9.248;2023-04-15T10:47:12;96002.31;;;19.57;40.37
44131;BME280;29792;48.726;9.248;2023-04-15T10:49:49;96000.00;;;19.94;39.98
44131;BME280;29792;48.726;9.248;2023-04-15T10:52:16;96005.16;;;20.00;38.61
44131;BME280;29792;48.726;9.248;2023-04-15T10:54:42;96013.28;;;19.66;38.09
44131;BME280;29792;48.726;9.248;2023-04-15T11:05:09;96006.91;;;19.55;37.97
44131;BME280;29792;48.726;9.248;2023-04-15T11:12:43;96001.31;;;21.10;37.07
44131;BME280;29792;48.726;9.248;2023-04-15T11:15:26;96005.41;;;21.86;36.05
44131;BME280;29792;48.726;9.248;2023-04-15T11:17:56;96008.66;;;21.81;34.63
44131;BME280;29792;48.726;9.248;2023-04-15T11:20:22;96001.22;;;21.23;34.93
44131;BME280;29792;48.726;9.248;2023-04-15T11:22:49;96008.56;;;20.45;35.75
44131;BME280;29792;48.726;9.248;2023-04-15T11:25:22;96008.81;;;20.37;36.85
44131;BME280;29792;48.726;9.248;2023-04-15T11:27:48;96003.44;;;20.95;36.82
44131;BME280;29792;48.726;9.248;2023-04-15T11:30:22;96005.59;;;20.73;36.73
44131;BME280;29792;48.726;9.248;2023-04-15T11:32:57;96007.53;;;20.53;37.61
44131;BME280;29792;48.726;9.248;2023-04-15T11:35:22;96010.38;;;20.76;37.86
44131;BME280;29792;48.726;9.248;2023-04-15T11:37:48;96011.75;;;20.79;36.61
44131;BME280;29792;48.726;9.248;2023-04-15T11:40:15;96011.97;;;20.77;36.69
44131;BME280;29792;48.726;9.248;2023-04-15T11:42:42;96005.56;;;20.48;36.24
44131;BME280;29792;48.726;9.248;2023-04-15T11:45:14;96010.72;;;20.10;36.59
44131;BME280;29792;48.726;9.248;2023-04-15T11:47:42;96003.06;;;19.71;37.23
44131;BME280;29792;48.726;9.248;2023-04-15T11:50:21;96012.28;;;19.40;39.16
44131;BME280;29792;48.726;9.248;2023-04-15T11:52:56;96015.13;;;19.13;38.53
44131;BME280;29792;48.726;9.248;2023-04-15T11:55:25;96026.31;;;18.87;38.42
44131;BME280;29792;48.726;9.248;2023-04-15T12:00:31;96028.28;;;18.11;37.50
44131;BME280;29792;48.726;9.248;2023-04-15T12:03:28;96027.22;;;17.58;39.01
44131;BME280;29792;48.726;9.248;2023-04-15T12:06:20;96037.56;;;17.02;40.76
44131;BME280;29792;48.726;9.248;2023-04-15T12:08:58;96047.88;;;16.59;42.20
44131;BME280;29792;48.726;9.248;2023-04-15T12:11:28;96050.19;;;16.33;43.02
44131;BME280;29792;48.726;9.248;2023-04-15T12:14:15;96054.25;;;16.21;44.24
44131;BME280;29792;48.726;9.248;2023-04-15T12:16:43;96057.03;;;16.40;45.49
44131;BME280;29792;48.726;9.248;2023-04-15T12:19:13;96061.59;;;16.74;45.53
44131;BME280;29792;48.726;9.248;2023-04-15T12:21:41;96051.50;;;17.01;45.63
44131;BME280;29792;48.726;9.248;2023-04-15T12:24:09;96052.03;;;17.17;45.79
44131;BME280;29792;48.726;9.248;2023-04-15T12:26:55;96054.28;;;17.27;44.53
44131;BME280;29792;48.726;9.248;2023-04-15T12:29:27;96058.41;;;17.22;44.26
44131;BME280;29792;48.726;9.248;2023-04-15T12:31:57;96064.78;;;16.98;43.89
44131;BME280;29792;48.726;9.248;2023-04-15T12:34:27;96073.66;;;16.67;44.22
44131;BME280;29792;48.726;9.248;2023-04-15T12:36:54;96077.19;;;16.30;43.91
44131;BME280;29792;48.726;9.248;2023-04-15T12:39:23;96090.16;;;16.01;45.10
44131;BME280;29792;48.726;9.248;2023-04-15T12:41:50;96097.44;;;15.68;45.22
44131;BME280;29792;48.726;9.248;2023-04-15T12:44:15;96121.25;;;15.18;47.92
44131;BME280;29792;48.726;9.248;2023-04-15T12:46:41;96122.75;;;14.67;51.73
44131;BME280;29792;48.726;9.248;2023-04-15T12:49:07;96126.66;;;14.16;54.87
44131;BME280;29792;48.726;9.248;2023-04-15T12:51:33;96135.75;;;13.79;57.87
44131;BME280;29792;48.726;9.248;2023-04-15T12:53:58;96154.00;;;13.45;60.66
44131;BME280;29792;48.726;9.248;2023-04-15T12:56:24;96152.03;;;13.15;62.62
44131;BME280;29792;48.726;9.248;2023-04-15T12:58:49;96152.31;;;12.87;65.45
44131;BME280;29792;48.726;9.248;2023-04-15T13:01:15;96160.59;;;12.65;66.71
44131;BME280;29792;48.726;9.248;2023-04-15T13:03:41;96157.50;;;12.45;68.94
44131;BME280;29792;48.726;9.248;2023-04-15T13:06:06;96160.00;;;12.29;70.62
44131;BME280;29792;48.726;9.248;2023-04-15T13:08:32;96162.72;;;12.28;72.75
44131;BME280;29792;48.726;9.248;2023-04-15T13:10:57;96166.91;;;12.29;72.70
44131;BME280;29792;48.726;9.248;2023-04-15T13:13:23;96156.47;;;12.30;73.03
44131;BME280;29792;48.726;9.248;2023-04-15T13:15:48;96160.34;;;12.34;73.78
44131;BME280;29792;48.726;9.248;2023-04-15T13:18:13;96168.25;;;12.49;75.90
44131;BME280;29792;48.726;9.248;2023-04-15T13:20:39;96161.59;;;12.72;76.09